createdAt,value
2023-12-19T00:00:59.006Z,10.40
2023-12-19T00:06:00.958Z,10.50
2023-12-19T00:11:02.856Z,9.88
2023-12-19T00:16:05.601Z,9.82
2023-12-19T00:21:07.436Z,11.20
2023-12-19T00:26:09.264Z,10.15
2023-12-19T00:31:20.770Z,9.85
2023-12-19T00:36:23.651Z,9.68
2023-12-19T00:41:25.578Z,9.68
2023-12-19T00:46:27.811Z,10.30
2023-12-19T00:51:29.786Z,9.23
2023-12-19T00:56:33.653Z,9.50
2023-12-19T01:01:35.582Z,9.95
2023-12-19T01:06:37.530Z,9.38
2023-12-19T01:11:39.305Z,9.20
2023-12-19T01:16:41.237Z,9.60
2023-12-19T01:21:43.113Z,8.35
2023-12-19T01:26:46.139Z,8.68
2023-12-19T01:31:47.963Z,8.50
2023-12-19T01:36:57.003Z,8.68
2023-12-19T01:42:00.560Z,11.80
2023-12-19T01:47:02.500Z,9.63
2023-12-19T01:52:04.878Z,10.20
2023-12-19T01:57:06.965Z,10.13
2023-12-19T02:02:08.928Z,10.52
2023-12-19T02:07:10.861Z,11.52
2023-12-19T02:12:13.855Z,11.80
2023-12-19T02:17:18.045Z,12.40
2023-12-19T02:22:20.090Z,11.35
2023-12-19T02:27:25.276Z,11.48
2023-12-19T02:32:27.133Z,11.75
2023-12-19T02:37:28.992Z,11.77
2023-12-19T02:42:31.113Z,12.18
2023-12-19T02:52:35.387Z,13.60
2023-12-19T02:57:39.780Z,12.00
2023-12-19T03:02:43.755Z,12.05
2023-12-19T03:07:45.786Z,12.25
2023-12-19T03:12:48.017Z,12.48
2023-12-19T03:17:50.250Z,12.30
2023-12-19T03:22:52.344Z,11.82
2023-12-19T03:27:54.189Z,13.13
2023-12-19T03:32:56.509Z,12.20
2023-12-19T03:37:58.322Z,12.15
2023-12-19T03:43:00.114Z,12.13
2023-12-19T03:48:02.408Z,11.05
2023-12-19T03:53:04.527Z,9.95
2023-12-19T03:58:06.336Z,9.57
2023-12-19T04:03:08.373Z,9.88
2023-12-19T04:08:11.172Z,10.63
2023-12-19T04:13:12.972Z,10.88
2023-12-19T04:18:16.035Z,11.07
2023-12-19T04:23:18.104Z,11.23
2023-12-19T04:28:20.308Z,11.25
2023-12-19T04:33:22.295Z,10.90
2023-12-19T04:38:25.072Z,10.32
2023-12-19T04:48:33.071Z,11.00
2023-12-19T04:53:34.977Z,11.48
2023-12-19T04:58:36.744Z,10.88
2023-12-19T05:03:41.127Z,10.65
2023-12-19T05:08:42.950Z,10.23
2023-12-19T05:13:44.802Z,10.43
2023-12-19T05:18:47.656Z,10.02
2023-12-19T05:23:49.708Z,9.23
2023-12-19T05:28:51.730Z,8.45
2023-12-19T05:33:53.645Z,11.85
2023-12-19T05:38:55.465Z,12.32
2023-12-19T05:44:02.409Z,8.27
2023-12-19T05:49:04.756Z,9.13
2023-12-19T05:54:06.918Z,9.32
2023-12-19T05:59:08.694Z,8.18
2023-12-19T06:04:11.995Z,8.70
2023-12-19T06:09:14.185Z,8.85
2023-12-19T06:14:16.118Z,8.52
2023-12-19T06:19:18.146Z,8.13
2023-12-19T06:24:19.907Z,9.23
2023-12-19T06:29:21.703Z,9.23
2023-12-19T06:34:23.558Z,9.77
2023-12-19T06:39:25.618Z,9.07
2023-12-19T06:44:27.421Z,9.18
2023-12-19T06:49:29.523Z,10.50
2023-12-19T06:54:33.313Z,9.02
2023-12-19T06:59:35.308Z,9.90
2023-12-19T07:04:37.525Z,9.80
2023-12-19T07:09:39.345Z,9.57
2023-12-19T07:14:42.502Z,10.98
2023-12-19T07:19:44.988Z,9.25
2023-12-19T07:24:47.401Z,9.45
2023-12-19T07:29:49.780Z,10.18
2023-12-19T07:34:51.568Z,9.30
2023-12-19T07:39:53.842Z,9.43
2023-12-19T07:44:55.667Z,9.63
2023-12-19T07:49:58.069Z,9.43
2023-12-19T07:55:00.449Z,8.80
2023-12-19T08:05:14.418Z,8.82
2023-12-19T08:10:16.940Z,8.73
2023-12-19T08:15:19.025Z,8.35
2023-12-19T08:20:21.077Z,8.07
2023-12-19T08:25:22.820Z,8.45
2023-12-19T08:35:33.545Z,9.32
2023-12-19T08:40:35.611Z,8.52
2023-12-19T08:45:38.401Z,8.45
2023-12-19T08:50:40.462Z,8.73
2023-12-19T08:55:44.437Z,9.02
2023-12-19T09:00:46.253Z,10.50
2023-12-19T09:05:48.404Z,10.95
2023-12-19T09:10:50.685Z,10.52
2023-12-19T09:15:53.155Z,37.55
2023-12-19T09:20:54.995Z,43.42
2023-12-19T09:25:56.773Z,24.23
2023-12-19T09:30:58.840Z,15.30
2023-12-19T09:36:00.874Z,12.88
2023-12-19T09:41:03.997Z,12.13
2023-12-19T09:46:06.743Z,12.77
2023-12-19T09:51:29.585Z,12.95
2023-12-19T09:56:31.516Z,12.40
2023-12-19T10:01:34.508Z,12.77
2023-12-19T10:06:46.694Z,13.43
2023-12-19T10:12:08.321Z,12.77
2023-12-19T10:17:18.926Z,11.80
2023-12-19T10:22:21.673Z,11.00
2023-12-19T10:27:23.625Z,10.38
2023-12-19T10:32:26.631Z,9.82
2023-12-19T10:42:42.235Z,8.68
2023-12-19T10:47:44.190Z,10.03
2023-12-19T10:57:51.806Z,10.27
2023-12-19T11:08:16.931Z,8.73
2023-12-19T11:13:20.156Z,8.20
2023-12-19T11:18:32.718Z,8.50
2023-12-19T11:24:04.450Z,9.73
2023-12-19T11:29:06.724Z,9.82
2023-12-19T11:34:26.146Z,9.77
2023-12-19T11:39:31.241Z,10.20
2023-12-19T11:44:37.930Z,8.63
2023-12-19T11:49:39.934Z,8.30
2023-12-19T11:54:42.177Z,10.20
2023-12-19T11:59:52.112Z,9.33
2023-12-19T12:05:09.894Z,9.63
2023-12-19T12:10:15.783Z,9.48
2023-12-19T12:15:23.281Z,10.25
2023-12-19T12:20:26.533Z,8.70
2023-12-19T12:25:29.142Z,8.27
2023-12-19T12:35:37.054Z,7.28
2023-12-19T12:40:39.028Z,7.65
2023-12-19T12:45:40.789Z,8.30
2023-12-19T12:50:42.649Z,8.23
2023-12-19T12:55:44.412Z,7.93
2023-12-19T13:00:47.576Z,7.93
2023-12-19T13:05:49.503Z,7.63
2023-12-19T13:10:51.282Z,8.17
2023-12-19T13:15:54.257Z,8.32
2023-12-19T13:20:57.734Z,8.52
2023-12-19T13:31:04.884Z,7.85
2023-12-19T13:36:07.305Z,8.05
2023-12-19T13:41:09.115Z,8.67
2023-12-19T13:46:11.419Z,8.63
2023-12-19T13:51:13.677Z,9.05
2023-12-19T13:56:15.453Z,8.60
2023-12-19T14:01:17.563Z,9.32
2023-12-19T14:06:19.853Z,11.50
2023-12-19T14:11:21.961Z,9.60
2023-12-19T14:16:23.936Z,9.93
2023-12-19T14:21:25.738Z,10.20
2023-12-19T14:26:29.536Z,10.23
2023-12-19T14:31:32.876Z,9.98
2023-12-19T14:36:34.737Z,11.52
2023-12-19T14:41:37.172Z,9.88
2023-12-19T14:46:39.322Z,10.67
2023-12-19T14:56:44.485Z,9.10
2023-12-19T15:01:46.561Z,8.82
2023-12-19T15:06:48.537Z,10.10
2023-12-19T15:11:50.957Z,9.43
2023-12-19T15:16:53.136Z,8.75
2023-12-19T15:21:55.028Z,8.57
2023-12-19T15:26:58.266Z,8.70
2023-12-19T15:32:02.107Z,9.02
2023-12-19T15:37:04.482Z,8.98
2023-12-19T15:47:08.816Z,7.87
2023-12-19T15:52:11.144Z,8.85
2023-12-19T15:57:13.349Z,9.77
2023-12-19T16:02:15.104Z,8.20
2023-12-19T16:07:18.336Z,8.30
2023-12-19T16:12:20.288Z,8.77
2023-12-19T16:17:22.135Z,8.77
2023-12-19T16:22:23.971Z,8.07
2023-12-19T16:27:25.752Z,8.47
2023-12-19T16:32:27.919Z,8.50
2023-12-19T16:37:30.080Z,8.10
2023-12-19T16:42:32.104Z,8.07
2023-12-19T16:47:33.847Z,7.90
2023-12-19T16:52:36.499Z,7.73
2023-12-19T16:57:38.978Z,6.93
2023-12-19T17:02:41.929Z,7.70
2023-12-19T17:07:44.232Z,8.25
2023-12-19T17:12:49.622Z,7.87
2023-12-19T17:17:52.726Z,8.32
2023-12-19T17:27:56.812Z,7.90
2023-12-19T17:32:58.606Z,8.17
2023-12-19T17:38:00.490Z,7.53
2023-12-19T17:43:02.725Z,7.22
2023-12-19T17:48:05.500Z,7.70
2023-12-19T17:58:08.971Z,6.68
2023-12-19T18:03:11.454Z,12.35
2023-12-19T18:08:13.424Z,20.10
2023-12-19T18:13:15.253Z,12.30
2023-12-19T18:18:19.887Z,9.97
2023-12-19T18:23:21.845Z,14.02
2023-12-19T18:28:24.027Z,8.60
2023-12-19T18:33:26.152Z,6.80
2023-12-19T18:38:28.294Z,8.70
2023-12-19T18:43:30.085Z,7.07
2023-12-19T18:48:32.300Z,7.43
2023-12-19T18:53:34.427Z,6.18
2023-12-19T18:58:36.396Z,8.37
2023-12-19T19:03:39.864Z,9.63
2023-12-19T19:08:43.114Z,8.60
2023-12-19T19:13:45.773Z,8.80
2023-12-19T19:18:50.297Z,9.35
2023-12-19T19:23:53.292Z,9.82
2023-12-19T19:28:57.906Z,10.20
2023-12-19T19:34:00.108Z,10.30
2023-12-19T19:44:09.492Z,10.80
2023-12-19T19:49:11.395Z,10.88
2023-12-19T19:54:13.274Z,10.70
2023-12-19T19:59:15.840Z,10.02
2023-12-19T20:04:17.696Z,6.90
2023-12-19T20:09:19.745Z,5.63
2023-12-19T20:14:21.673Z,5.50
2023-12-19T20:19:23.995Z,5.75
2023-12-19T20:24:25.794Z,16.60
2023-12-19T20:29:27.616Z,11.67
2023-12-19T20:34:30.133Z,11.23
2023-12-19T20:39:32.814Z,8.45
2023-12-19T20:44:35.526Z,7.22
2023-12-19T20:49:37.498Z,8.73
2023-12-19T20:54:39.737Z,8.38
2023-12-19T20:59:42.183Z,12.20
2023-12-19T21:04:44.074Z,9.80
2023-12-19T21:09:45.952Z,8.17
2023-12-19T21:14:48.013Z,10.40
2023-12-19T21:19:49.873Z,10.47
2023-12-19T21:24:51.703Z,10.77
2023-12-19T21:29:53.454Z,12.63
2023-12-19T21:34:55.519Z,13.20
2023-12-19T21:39:57.888Z,11.77
2023-12-19T21:45:00.651Z,11.50
2023-12-19T21:50:02.601Z,10.15
2023-12-19T21:55:06.234Z,10.68
2023-12-19T22:00:09.124Z,10.95
2023-12-19T22:10:13.386Z,10.10
2023-12-19T22:15:16.715Z,9.90
2023-12-19T22:20:18.808Z,9.48
2023-12-19T22:25:20.648Z,10.00
2023-12-19T22:30:22.677Z,9.02
2023-12-19T22:35:24.445Z,7.55
2023-12-19T22:40:26.541Z,8.33
2023-12-19T22:45:28.496Z,7.70
2023-12-19T22:50:30.341Z,7.60
2023-12-19T22:55:37.884Z,7.03
2023-12-19T23:00:39.905Z,7.05
2023-12-19T23:05:41.999Z,6.70
2023-12-19T23:10:43.717Z,5.90
2023-12-19T23:15:47.826Z,5.82
2023-12-19T23:20:49.729Z,5.50
2023-12-19T23:25:51.662Z,5.43
2023-12-19T23:30:53.653Z,5.00
2023-12-19T23:35:55.978Z,4.97
2023-12-19T23:40:57.896Z,5.30
2023-12-19T23:46:00.488Z,5.13
2023-12-19T23:51:02.363Z,4.63
2023-12-19T23:56:04.665Z,4.45
